createdAt,value
2023-02-06T00:00:01.455Z,80
2023-02-06T00:16:03.944Z,80
2023-02-06T00:31:01.073Z,80
2023-02-06T00:46:03.239Z,80
2023-02-06T01:00:05.038Z,81
2023-02-06T01:16:02.225Z,81
2023-02-06T01:31:04.440Z,82
2023-02-06T01:46:01.562Z,82
2023-02-06T02:00:03.450Z,83
2023-02-06T02:16:00.879Z,83
2023-02-06T02:31:03.091Z,83
2023-02-06T02:46:05.392Z,83
2023-02-06T03:00:02.488Z,84
2023-02-06T03:16:04.713Z,84
2023-02-06T03:31:01.950Z,85
2023-02-06T03:46:04.068Z,85
2023-02-06T04:00:01.122Z,85
2023-02-06T04:16:03.286Z,86
2023-02-06T04:31:01.970Z,86
2023-02-06T04:46:02.813Z,86
2023-02-06T05:00:04.841Z,86
2023-02-06T05:16:02.167Z,86
2023-02-06T05:31:04.392Z,86
2023-02-06T05:46:01.540Z,87
2023-02-06T06:00:03.558Z,87
2023-02-06T06:16:00.745Z,87
2023-02-06T06:31:02.871Z,87
2023-02-06T06:46:05.153Z,87
2023-02-06T07:00:02.088Z,88
2023-02-06T07:16:04.508Z,88
2023-02-06T07:31:01.582Z,88
2023-02-06T07:46:04.805Z,89
2023-02-06T08:00:01.870Z,89
2023-02-06T08:16:03.006Z,87
2023-02-06T08:31:07.453Z,78
2023-02-06T08:46:02.527Z,74
2023-02-06T09:00:04.507Z,72
2023-02-06T09:16:01.984Z,68
2023-02-06T09:31:04.088Z,63
2023-02-06T09:46:07.121Z,64
2023-02-06T10:00:03.194Z,64
2023-02-06T10:16:05.431Z,64
2023-02-06T10:31:02.571Z,65
2023-02-06T10:46:04.660Z,65
2023-02-06T11:00:01.718Z,65
2023-02-06T11:16:04.357Z,64
2023-02-06T11:31:01.296Z,61
2023-02-06T11:46:03.602Z,60
2023-02-06T12:00:05.515Z,61
2023-02-06T12:16:02.959Z,59
2023-02-06T12:31:05.216Z,58
2023-02-06T12:46:01.598Z,57
2023-02-06T13:00:03.715Z,57
2023-02-06T13:16:00.985Z,57
2023-02-06T13:31:03.195Z,57
2023-02-06T13:46:05.168Z,59
2023-02-06T14:00:02.198Z,58
2023-02-06T14:16:04.469Z,60
2023-02-06T14:31:01.234Z,59
2023-02-06T14:46:07.976Z,60
2023-02-06T15:00:05.314Z,60
2023-02-06T15:16:02.514Z,60
2023-02-06T15:31:04.631Z,61
2023-02-06T15:46:01.760Z,62
2023-02-06T16:00:03.645Z,63
2023-02-06T16:16:01.734Z,63
2023-02-06T16:31:02.782Z,63
2023-02-06T16:46:04.920Z,63
2023-02-06T17:00:01.871Z,62
2023-02-06T17:16:04.275Z,61
2023-02-06T17:31:01.204Z,62
2023-02-06T17:46:03.290Z,63
2023-02-06T18:00:05.193Z,64
2023-02-06T18:16:02.530Z,63
2023-02-06T18:31:05.678Z,61
2023-02-06T18:46:01.571Z,60
2023-02-06T19:00:03.548Z,61
2023-02-06T19:16:00.650Z,61
2023-02-06T19:31:02.919Z,62
2023-02-06T19:46:04.844Z,64
2023-02-06T20:00:01.637Z,64
2023-02-06T20:16:04.912Z,66
2023-02-06T20:31:01.714Z,67
2023-02-06T20:46:02.922Z,68
2023-02-06T21:00:04.957Z,69
2023-02-06T21:16:02.330Z,69
2023-02-06T21:31:04.480Z,71
2023-02-06T21:46:01.781Z,72
2023-02-06T22:00:03.406Z,73
2023-02-06T22:16:05.585Z,73
2023-02-06T22:31:02.421Z,75
2023-02-06T22:46:04.503Z,76
2023-02-06T23:00:02.228Z,76
2023-02-06T23:16:03.631Z,77
2023-02-06T23:31:00.661Z,78
2023-02-06T23:46:02.970Z,79
